Tiempo atmosférico en la estación meteorológica de Fuencaliente, Ciudad Real (640 m.)



Fecha
DESCASC
Temp. máxima en grados centígrados (hora)
DESCASC
Temp. mínima en grados centígrados (hora)
DESCASC
Temp. media en grados centígrados
DESCASC
Racha de viento máxima en m/sg (hora)
DESCASC
Velocidad máxima media en intervalos de 10 minutos(hora)
DESCASC
Precipitaciones diarias en mm
DESCASC
Precipitaciones de 00:00 a 06:00 en mm
DESCASC
Precipitaciones de 06:00 a 12:00 en mm
DESCASC
Precipitaciones de 12:00 a 18:00 en mm
DESCASC
Precipitaciones de 18:00 a 24:00 en mm
DESCASC
20-09-2018 31 (16:50) 15.5 (07:50) 23.3 6.39 (15:40) 3.06 (15:20) 0 0 0 0 0
19-09-2018 29.9 (14:10) 15.1 (08:00) 22.5 4.72 (17:10) 2.22 (17:10) 0 0 0 0 0
18-09-2018 28.4 (14:00) 14.8 (05:30) 21.6 6.39 (14:50) 2.78 (15:10) 1.6 0.2 0 1.4 0
17-09-2018 27.7 (15:00) 14.9 (07:40) 21.3 6.11 (20:10) 3.33 (16:00) 3.6 0 0 0 3.6
16-09-2018 29.4 (16:50) 14.8 (00:00) 22.1 5.56 (16:50) 3.33 (14:50) 0.2 0 0.2 0 0
15-09-2018 27.8 (15:50) 14.2 (00:00) 21 6.39 (16:10) 3.33 (16:40) 0.4 0.4 0 0 0
14-09-2018 30.3 (15:50) 15.6 (00:00) 22.9 16.94 (16:50) 8.89 (16:50) 16.4 0 0 12.6 3.8
13-09-2018 32 (17:00) 15.5 (00:00) 23.8 5.56 (16:50) 3.33 (16:50) 0.2 0 0.2 0 0
12-09-2018 30.3 (16:00) 15.8 (00:00) 23 5.28 (21:00) 2.5 (21:00) 0.6 0 0 0 0.6
11-09-2018 28.5 (14:50) 15.2 (00:00) 21.8 5.83 (12:40) 2.78 (12:40) 0 0 0 0 0
10-09-2018 26.9 (17:30) 12.9 (00:00) 19.9 9.44 (13:20) 4.72 (13:20) 0.2 0.2 0 0 0
09-09-2018 28.2 (16:10) 13.5 (00:00) 20.9 18.61 (19:00) 8.61 (19:00) 22.6 0 0 0 22.6
08-09-2018 23.7 (11:30) 14.1 (00:00) 18.9 8.89 (14:10) 3.33 (14:20) 0 0 0 0 0
07-09-2018 29.2 (17:30) 12.6 (00:00) 20.9 8.89 (17:30) 4.72 (15:50) 0 0 0 0 0
06-09-2018 28.7 (17:50) 12.3 (00:00) 20.5 8.06 (15:30) 3.61 (16:00) 0 0 0 0 0
05-09-2018 27 (17:00) 12.3 (00:00) 19.7 7.78 (14:50) 3.61 (16:30) 0 0 0 0 0
04-09-2018 28.9 (16:50) 12.4 (00:00) 20.6 7.22 (14:40) 4.17 (15:30) 0 0 0 0 0
03-09-2018 31.1 (17:30) 18.3 (00:00) 24.7 9.72 (17:30) 5.28 (19:20) 0 0 0 0 0
02-09-2018 36.6 (16:50) 17.5 (00:00) 27 7.5 (17:30) 4.17 (17:30) 0 0 0 0 0
01-09-2018 36.4 (15:30) 17.3 (00:00) 26.9 7.5 (15:40) 3.61 (18:30) 0 0 0 0 0
31-08-2018 35.3 (16:00) 16.9 (00:00) 26.1 6.67 (16:50) 3.89 (17:00) 0 0 0 0 0
30-08-2018 33.3 (16:50) 16.1 (00:00) 24.7 6.39 (15:30) 3.33 (12:10) 0 0 0 0 0
29-08-2018 33.2 (18:20) 16.1 (00:00) 24.7 6.67 (14:50) 3.33 (17:30) 0 0 0 0 0
28-08-2018 33.9 (15:50) 18.8 (00:00) 26.4 10 (18:30) 5.28 (18:30) 0 0 0 0 0
27-08-2018 37.1 (15:30) 16.9 (00:00) 27 8.61 (15:00) 5.28 (19:40) 0 0 0 0 0
26-08-2018 36.3 (16:20) 16.1 (00:00) 26.2 7.78 (16:40) 3.61 (18:50) 0 0 0 0 0
25-08-2018 35.5 (16:20) 17.5 (00:00) 26.5 8.89 (15:50) 3.89 (15:50) 0 0 0 0 0
24-08-2018 35.3 (18:30) 16.1 (00:00) 25.7 5.83 (14:40) 2.78 (17:50) 0 0 0 0 0

Gráficas

Temp. máximas Temp. mínimas Temp. medias Precipitaciones Rachas de viento máximas Velocidades máximas media en intervalos de 10 minutos

Datos horarios

Fecha y hora oficial Temperatura (ºC) Velocidad del viento (km/h) Dirección del viento Racha (km/h) Dirección de racha Precipitación (mm) Presión (hPa) Tendencia (hPa) Humedad (%)
2018-09-22 23:00:00 20.2 0 Calma 3 Nordeste 0 -- -- 58
2018-09-22 22:00:00 21.1 0 Calma 2 Nordeste 0 -- -- 59
2018-09-22 21:00:00 23.7 0 Calma 6 Nordeste 0 -- -- 52
2018-09-22 20:00:00 28.1 0 Calma 8 Sudoeste 0 -- -- 43
2018-09-22 19:00:00 32.7 5 Oeste 12 Sudoeste 0 -- -- 27
2018-09-22 18:00:00 33 8 Sudoeste 15 Oeste 0 -- -- 27
2018-09-22 17:00:00 33.3 4 Oeste 17 Este 0 -- -- 27
2018-09-22 16:00:00 33.3 6 Sudoeste 19 Sudoeste 0 -- -- 29
2018-09-22 15:00:00 32.9 10 Sudoeste 22 Sudoeste 0 -- -- 30
2018-09-22 14:00:00 31.9 7 Sudeste 18 Sur 0 -- -- 32
2018-09-22 13:00:00 30.4 7 Sudoeste 13 Sur 0 -- -- 38
2018-09-22 12:00:00 28.8 4 Sur 11 Sur 0 -- -- 41
2018-09-22 11:00:00 27.1 2 Sur 5 Sur 0 -- -- 44
2018-09-22 10:00:00 21.6 0 Calma 3 Este 0 -- -- 68
2018-09-22 09:00:00 16.8 0 Calma 2 Nordeste 0 -- -- 79
2018-09-22 08:00:00 16.2 0 Calma 2 Nordeste 0 -- -- 75
2018-09-22 07:00:00 16.7 0 Calma 4 Oeste 0 -- -- 72
2018-09-22 06:00:00 17.3 0 Calma 7 Nordeste 0 -- -- 72
2018-09-22 05:00:00 17.7 0 Calma 4 Este 0 -- -- 70
2018-09-22 04:00:00 18.1 0 Calma 6 Nordeste 0 -- -- 70
2018-09-22 03:00:00 19 0 Calma 7 Norte 0 -- -- 63
2018-09-22 02:00:00 19.4 0 Calma 4 Sudoeste 0 -- -- 65
2018-09-22 01:00:00 19.7 0 Calma 6 Nordeste 0 -- -- 63
2018-09-22 00:00:00 19.2 0 Calma 6 Oeste 0 -- -- 65
2018-09-21 23:00:00 19.8 0 Calma 3 Este 0 -- -- 67
2018-09-21 22:00:00 20.9 0 Calma 5 Este 0 -- -- 63
2018-09-21 21:00:00 23.1 0 Calma 8 Este 0 -- -- 58
2018-09-21 20:00:00 26.7 0 Calma 6 Sudoeste 0 -- -- 49
2018-09-21 19:00:00 30.4 4 Sudoeste 13 Sudoeste 0 -- -- 34
2018-09-21 18:00:00 31.2 10 Sudoeste 18 Sudoeste 0 -- -- 34
2018-09-21 17:00:00 31 8 Sudoeste 21 Sur 0 -- -- 33
2018-09-21 16:00:00 32.1 8 Sur 18 Sur 0 -- -- 27
2018-09-21 15:00:00 31 9 Sur 21 Sudoeste 0 -- -- 31
2018-09-21 14:00:00 29.7 8 Sudeste 21 Sudeste 0 -- -- 42
2018-09-21 13:00:00 28.3 7 Sur 12 Sur 0 -- -- 46
2018-09-21 12:00:00 26.6 5 Sur 9 Sudeste 0 -- -- 54
2018-09-21 11:00:00 24.6 3 Sur 6 Sudeste 0 -- -- 60
2018-09-21 10:00:00 20.4 0 Calma 2 Este 0 -- -- 75
2018-09-21 09:00:00 15.6 0 Calma 3 Este 0 -- -- 90
2018-09-21 08:00:00 15 0 Calma 3 Nordeste 0 -- -- 89
2018-09-21 07:00:00 14.8 0 Calma 6 Este 0 -- -- 88
2018-09-21 06:00:00 15.2 3 Nordeste 6 Nordeste 0 -- -- 85
2018-09-21 05:00:00 15.7 0 Calma 3 Nordeste 0 -- -- 83
2018-09-21 04:00:00 16 0 Calma 4 Nordeste 0 -- -- 82
2018-09-21 03:00:00 16.5 0 Calma 4 Este 0 -- -- 80
2018-09-21 02:00:00 16.8 0 Calma 5 Oeste 0 -- -- 79
2018-09-21 01:00:00 17.3 2 Nordeste 6 Sudoeste 0 -- -- 74
2018-09-21 00:00:00 17.9 3 Nordeste 6 Este 0 -- -- 73
2018-09-20 23:00:00 19.2 0 Calma 6 Nordeste 0 -- -- 71
2018-09-20 22:00:00 20.7 3 Norte 5 Sudoeste 0 -- -- 65
2018-09-20 21:00:00 23.4 2 Noroeste 19 Sudoeste 0 -- -- 55
2018-09-20 20:00:00 26.6 10 Sudoeste 21 Sudoeste 0 -- -- 43
2018-09-20 19:00:00 29.8 7 Sudoeste 15 Sudoeste 0 -- -- 33
2018-09-20 18:00:00 29.4 5 Sur 16 Sur 0 -- -- 34
2018-09-20 17:00:00 30.7 7 Sur 17 Sur 0 -- -- 32
2018-09-20 16:00:00 30.7 9 Sudeste 23 Sudoeste 0 -- -- 33
2018-09-20 15:00:00 30.2 6 Sur 18 Sur 0 -- -- 34
2018-09-20 14:00:00 28.9 7 Sudeste 17 Sur 0 -- -- 41
2018-09-20 13:00:00 28 8 Sudeste 17 Sudeste 0 -- -- 47
2018-09-20 12:00:00 26.6 6 Sur 13 Sudeste 0 -- -- 55
2018-09-20 11:00:00 25 4 Sudeste 8 Este 0 -- -- 61
2018-09-20 10:00:00 21.1 0 Calma 3 Nordeste 0 -- -- 83
2018-09-20 09:00:00 16.2 0 Calma 5 Nordeste 0 -- -- 94
2018-09-20 08:00:00 15.5 0 Calma 3 Este 0 -- -- 92
2018-09-20 07:00:00 15.7 0 Calma 4 Este 0 -- -- 90
2018-09-20 06:00:00 16 0 Calma 4 Nordeste 0 -- -- 90
2018-09-20 05:00:00 16.4 0 Calma 5 Este 0 -- -- 89
2018-09-20 04:00:00 16.8 0 Calma 4 Nordeste 0 -- -- 86
2018-09-20 03:00:00 17.2 0 Calma 4 Nordeste 0 -- -- 85
2018-09-20 02:00:00 17.6 0 Calma 4 Nordeste 0 -- -- 84
2018-09-20 01:00:00 17.8 0 Calma 5 Nordeste 0 -- -- 84
2018-09-20 00:00:00 18.4 0 Calma 6 Noroeste 0 -- -- 81
2018-09-19 23:00:00 19.3 0 Calma 2 Nordeste 0 -- -- 79
2018-09-19 22:00:00 20.8 0 Calma 4 Nordeste 0 -- -- 77
2018-09-19 21:00:00 22.5 2 Nordeste 4 Nordeste 0 -- -- 73
2018-09-19 20:00:00 24.8 0 Calma 12 Este 0 -- -- 67
2018-09-19 19:00:00 26.1 2 Sudeste 10 Sur 0 -- -- 57
2018-09-19 18:00:00 -- -- -- -- -- -- -- -- --
2018-09-19 17:00:00 -- -- -- -- -- -- -- -- --
2018-09-19 16:00:00 -- -- -- -- -- -- -- -- --
2018-09-19 15:00:00 -- -- -- -- -- -- -- -- --
2018-09-19 14:00:00 -- -- -- -- -- -- -- -- --
2018-09-19 13:00:00 -- -- -- -- -- -- -- -- --
2018-09-19 12:00:00 -- -- -- -- -- -- -- -- --
2018-09-19 11:00:00 -- -- -- -- -- -- -- -- --
2018-09-19 10:00:00 -- -- -- -- -- -- -- -- --
2018-09-19 09:00:00 -- -- -- -- -- -- -- -- --
2018-09-19 08:00:00 -- -- -- -- -- -- -- -- --
2018-09-19 07:00:00 -- -- -- -- -- -- -- -- --
2018-09-19 06:00:00 -- -- -- -- -- -- -- -- --
2018-09-19 05:00:00 -- -- -- -- -- -- -- -- --
2018-09-19 04:00:00 -- -- -- -- -- -- -- -- --
2018-09-19 03:00:00 -- -- -- -- -- -- -- -- --
2018-09-19 02:00:00 -- -- -- -- -- -- -- -- --
2018-09-19 01:00:00 -- -- -- -- -- -- -- -- --
2018-09-19 00:00:00 -- -- -- -- -- -- -- -- --
2018-09-18 23:00:00 -- -- -- -- -- -- -- -- --
2018-09-18 22:00:00 -- -- -- -- -- -- -- -- --
2018-09-18 21:00:00 -- -- -- -- -- -- -- -- --
2018-09-18 20:00:00 -- -- -- -- -- -- -- -- --
2018-09-18 19:00:00 -- -- -- -- -- -- -- -- --
2018-09-18 18:00:00 -- -- -- -- -- -- -- -- --
2018-09-18 17:00:00 -- -- -- -- -- -- -- -- --
2018-09-18 16:00:00 -- -- -- -- -- -- -- -- --
2018-09-18 15:00:00 -- -- -- -- -- -- -- -- --
2018-09-18 14:00:00 -- -- -- -- -- -- -- -- --
2018-09-18 13:00:00 -- -- -- -- -- -- -- -- --
2018-09-18 12:00:00 -- -- -- -- -- -- -- -- --
2018-09-18 11:00:00 -- -- -- -- -- -- -- -- --
2018-09-18 10:00:00 -- -- -- -- -- -- -- -- --
2018-09-18 09:00:00 -- -- -- -- -- -- -- -- --
2018-09-18 08:00:00 -- -- -- -- -- -- -- -- --
2018-09-18 07:00:00 -- -- -- -- -- -- -- -- --
2018-09-18 06:00:00 -- -- -- -- -- -- -- -- --
2018-09-18 05:00:00 -- -- -- -- -- -- -- -- --
2018-09-18 04:00:00 -- -- -- -- -- -- -- -- --
2018-09-18 03:00:00 -- -- -- -- -- -- -- -- --
2018-09-18 02:00:00 -- -- -- -- -- -- -- -- --
2018-09-18 01:00:00 -- -- -- -- -- -- -- -- --
2018-09-18 00:00:00 -- -- -- -- -- -- -- -- --
2018-09-17 23:00:00 -- -- -- -- -- -- -- -- --
2018-09-17 22:00:00 -- -- -- -- -- -- -- -- --
2018-09-17 21:00:00 -- -- -- -- -- -- -- -- --
2018-09-17 20:00:00 -- -- -- -- -- -- -- -- --
2018-09-17 19:00:00 -- -- -- -- -- -- -- -- --
2018-09-17 18:00:00 -- -- -- -- -- -- -- -- --
2018-09-17 17:00:00 25.4 10 Sur 18 Sur 0 -- -- 61
2018-09-17 16:00:00 26.3 12 Este 18 Este 0 -- -- 54
2018-09-17 15:00:00 27.7 5 Sudeste 13 Sur 0 -- -- 51
2018-09-17 14:00:00 26.9 6 Sur 15 Sur 0 -- -- 52
2018-09-17 13:00:00 26.8 5 Sur 12 Sudeste 0 -- -- 51
2018-09-17 12:00:00 24.9 5 Sur 14 Sudeste 0 -- -- 60
2018-09-17 11:00:00 24.7 5 Sudoeste 10 Noroeste 0 -- -- 58
2018-09-17 10:00:00 21.6 3 Oeste 8 Oeste 0 -- -- 73
2018-09-17 09:00:00 16.3 0 Calma 4 Este 0 -- -- 92
2018-09-17 08:00:00 15.1 0 Calma 4 Este 0 -- -- 92
2018-09-17 07:00:00 15.1 3 Nordeste 5 Nordeste 0 -- -- 91
2018-09-17 06:00:00 15.4 0 Calma 3 Este 0 -- -- 89
2018-09-17 05:00:00 15.8 2 Nordeste 3 Nordeste 0 -- -- 87
2018-09-17 04:00:00 16.3 0 Calma 5 Nordeste 0 -- -- 85
2018-09-17 03:00:00 16.6 0 Calma 5 Noroeste 0 -- -- 84
2018-09-17 02:00:00 17 0 Calma 4 Nordeste 0 -- -- 82
2018-09-17 01:00:00 17.5 0 Calma 2 Nordeste 0 -- -- 82
2018-09-17 00:00:00 18 0 Calma 2 Este 0 -- -- 81
2018-09-16 23:00:00 18.9 2 Nordeste 4 Nordeste 0 -- -- 77
2018-09-16 22:00:00 20.3 0 Calma 4 Nordeste 0 -- -- 73
2018-09-16 21:00:00 22.5 3 Nordeste 7 Norte 0 -- -- 63
2018-09-16 20:00:00 26.7 0 Calma 6 Sudoeste 0 -- -- 48
2018-09-16 19:00:00 28.3 4 Este 11 Este 0 -- -- 40
2018-09-16 18:00:00 -- -- -- -- -- -- -- -- --
2018-09-16 17:00:00 -- -- -- -- -- -- -- -- --
2018-09-16 16:00:00 -- -- -- -- -- -- -- -- --
2018-09-16 15:00:00 -- -- -- -- -- -- -- -- --
2018-09-16 14:00:00 -- -- -- -- -- -- -- -- --
2018-09-16 13:00:00 -- -- -- -- -- -- -- -- --
2018-09-16 12:00:00 -- -- -- -- -- -- -- -- --
2018-09-16 11:00:00 -- -- -- -- -- -- -- -- --
2018-09-16 10:00:00 -- -- -- -- -- -- -- -- --
2018-09-16 09:00:00 -- -- -- -- -- -- -- -- --
2018-09-16 08:00:00 -- -- -- -- -- -- -- -- --
2018-09-16 07:00:00 -- -- -- -- -- -- -- -- --
2018-09-16 06:00:00 -- -- -- -- -- -- -- -- --
2018-09-16 05:00:00 15.6 0 Calma 4 Nordeste 0 -- -- 93
2018-09-16 04:00:00 16 0 Calma 3 Nordeste 0 -- -- 93
2018-09-16 03:00:00 16.5 2 Nordeste 4 Nordeste 0 -- -- 92
2018-09-16 02:00:00 17.3 0 Calma 3 Este 0 -- -- 92
2018-09-16 01:00:00 18.1 0 Calma 5 Nordeste 0 -- -- 90
2018-09-16 00:00:00 18.3 0 Calma 4 Este 0 -- -- 91
2018-09-15 23:00:00 19.1 0 Calma 3 Sudoeste 0 -- -- 89
2018-09-15 22:00:00 19.5 0 Calma 4 Nordeste 0 -- -- 87
2018-09-15 21:00:00 20.3 3 Este 17 Este 0 -- -- 82
2018-09-15 20:00:00 22.3 0 Calma 8 Sur 0 -- -- 73
2018-09-15 19:00:00 22.8 2 Sudeste 6 Este 0 -- -- 62
2018-09-15 18:00:00 22.6 0 Calma 10 Sudoeste 0 -- -- 60
2018-09-15 17:00:00 22.9 6 Sur 23 Sudeste 0 -- -- 56
2018-09-15 16:00:00 27.2 8 Nordeste 19 Nordeste 0 -- -- 45
2018-09-15 15:00:00 25.9 3 Oeste 14 Este 0 -- -- 50
2018-09-15 14:00:00 24.5 5 Nordeste 20 Este 0 -- -- 57
2018-09-15 13:00:00 24.7 8 Nordeste 21 Nordeste 0 -- -- 54
2018-09-15 12:00:00 24.8 6 Sur 10 Sudoeste 0 -- -- 57
2018-09-15 11:00:00 22.4 5 Sudoeste 8 Sudoeste 0 -- -- 64
2018-09-15 10:00:00 18.6 0 Calma 3 Sur 0 -- -- 88
2018-09-15 09:00:00 14.8 2 Este 8 Noroeste 0 -- -- 94
2018-09-15 08:00:00 14.8 0 Calma 5 Norte 0 -- -- 91
2018-09-15 07:00:00 15.9 3 Noroeste 11 Norte 0 -- -- 86
2018-09-15 06:00:00 14.2 0 Calma 5 Nordeste 0 -- -- 93
2018-09-15 05:00:00 14.9 0 Calma 10 Norte 0.2 -- -- 91
2018-09-15 04:00:00 15.6 3 Sudoeste 11 Norte 0 -- -- 88
2018-09-15 03:00:00 15.3 3 Este 5 Norte 0 -- -- 93
2018-09-15 02:00:00 15.9 2 Oeste 7 Nordeste 0.2 -- -- 92
2018-09-15 01:00:00 16.2 0 Calma 9 Noroeste 0 -- -- 92
2018-09-15 00:00:00 16.5 3 Oeste 8 Norte 0.2 -- -- 91
2018-09-14 23:00:00 16.6 0 Calma 14 Noroeste 0 -- -- 90
2018-09-14 22:00:00 -- -- -- -- -- -- -- -- --
2018-09-14 21:00:00 16.8 4 Norte 21 Noroeste 1.4 -- -- 91
2018-09-14 20:00:00 17.2 8 Norte 23 Este 1.8 -- -- 91
2018-09-14 19:00:00 17.3 7 Este 29 Este 0.2 -- -- 89
2018-09-14 18:00:00 16.3 5 Sudoeste 23 Este 1 -- -- 93
2018-09-14 17:00:00 16.4 9 Noroeste 61 Nordeste 11.6 -- -- 87
2018-09-14 16:00:00 30.1 8 Sudoeste 17 Sur 0 -- -- 39
2018-09-14 15:00:00 29.5 9 Sur 17 Oeste 0 -- -- 42
2018-09-14 14:00:00 29.3 5 Sur 13 Sudeste 0 -- -- 45
2018-09-14 13:00:00 27.2 4 Sur 14 Sur 0 -- -- 49
2018-09-14 12:00:00 26 5 Sudeste 11 Sur 0 -- -- 51
2018-09-14 11:00:00 22.5 6 Sudeste 10 Sur 0 -- -- 68
2018-09-14 10:00:00 21.5 0 Calma 3 Oeste 0 -- -- 71
2018-09-14 09:00:00 16.3 0 Calma 4 Nordeste 0 -- -- 90
2018-09-14 08:00:00 15.7 0 Calma 5 Este 0 -- -- 90
2018-09-14 07:00:00 15.8 0 Calma 5 Nordeste 0 -- -- 86
2018-09-14 06:00:00 16.1 0 Calma 2 Nordeste 0 -- -- 85
2018-09-14 05:00:00 16.2 0 Calma 3 Este 0 -- -- 85
2018-09-14 04:00:00 16.9 0 Calma 3 Nordeste 0 -- -- 80
2018-09-14 03:00:00 17.6 0 Calma 4 Norte 0 -- -- 75
2018-09-14 02:00:00 18.6 0 Calma 8 Este 0 -- -- 69
2018-09-14 01:00:00 19.4 0 Calma 8 Este 0 -- -- 65
2018-09-14 00:00:00 20.2 2 Nordeste 17 Nordeste 0 -- -- 63
2018-09-13 23:00:00 19.8 0 Calma 4 Oeste 0 -- -- 64
2018-09-13 22:00:00 21.4 3 Nordeste 5 Este 0 -- -- 61
2018-09-13 21:00:00 24.4 0 Calma 10 Nordeste 0 -- -- 51
2018-09-13 20:00:00 29.1 0 Calma 9 Sudoeste 0 -- -- 42
2018-09-13 19:00:00 31.2 6 Sur 13 Sudoeste 0 -- -- 29
2018-09-13 18:00:00 31.6 8 Sudoeste 14 Oeste 0 -- -- 29
2018-09-13 17:00:00 32 6 Sur 20 Sur 0 -- -- 30
2018-09-13 16:00:00 31.4 9 Sudoeste 17 Sudoeste 0 -- -- 32
2018-09-13 15:00:00 29.5 6 Oeste 15 Noroeste 0 -- -- 38
2018-09-13 14:00:00 30.7 7 Sur 18 Sudeste 0 -- -- 36
2018-09-13 13:00:00 28.9 7 Sudeste 15 Sur 0 -- -- 49
2018-09-13 12:00:00 26.8 4 Sur 10 Sur 0 -- -- 59
2018-09-13 11:00:00 24.6 6 Sur 10 Sur 0.2 -- -- 67
2018-09-13 10:00:00 21.1 0 Calma 2 Sur 0 -- -- 82
2018-09-13 09:00:00 16.1 0 Calma 3 Este 0 -- -- 94
2018-09-13 08:00:00 15.7 0 Calma 2 Este 0 -- -- 92
2018-09-13 07:00:00 15.8 0 Calma 2 Nordeste 0 -- -- 92
2018-09-13 06:00:00 16 0 Calma 3 Oeste 0 -- -- 91
2018-09-13 05:00:00 16.2 0 Calma 4 Este 0 -- -- 90
2018-09-13 04:00:00 16.5 2 Nordeste 7 Este 0 -- -- 90
2018-09-13 03:00:00 17.4 0 Calma 8 Sur 0 -- -- 88
2018-09-13 02:00:00 18.1 0 Calma 5 Este 0 -- -- 87
2018-09-13 01:00:00 19 2 Nordeste 7 Este 0 -- -- 87
2018-09-13 00:00:00 19.3 0 Calma 9 Norte 0 -- -- 87
2018-09-12 23:00:00 19.9 0 Calma 7 Noroeste 0 -- -- 86
2018-09-12 22:00:00 20.6 3 Norte 11 Oeste 0.4 -- -- 85
2018-09-12 21:00:00 22.5 9 Oeste 19 Oeste 0.2 -- -- 73
2018-09-12 20:00:00 27.5 6 Nordeste 17 Este 0 -- -- 49
2018-09-12 19:00:00 28.8 5 Sudoeste 9 Oeste 0 -- -- 42
2018-09-12 18:00:00 29.1 3 Sudoeste 10 Sudoeste 0 -- -- 43
2018-09-12 17:00:00 30.1 8 Sudoeste 13 Sudoeste 0 -- -- 38
2018-09-12 16:00:00 30.3 5 Oeste 13 Noroeste 0 -- -- 38
2018-09-12 15:00:00 28.9 4 Nordeste 18 Este 0 -- -- 43
2018-09-12 14:00:00 29.2 4 Sudeste 15 Sudoeste 0 -- -- 45
2018-09-12 13:00:00 28.4 7 Oeste 17 Este 0 -- -- 50
2018-09-12 12:00:00 27 6 Sudeste 13 Sur 0 -- -- 55
2018-09-12 11:00:00 25.2 3 Sudoeste 9 Sudoeste 0 -- -- 62
2018-09-12 10:00:00 21.8 4 Oeste 8 Oeste 0 -- -- 76
2018-09-12 09:00:00 16.8 0 Calma 4 Nordeste 0 -- -- 94
2018-09-12 08:00:00 15.9 0 Calma 4 Este 0 -- -- 93
2018-09-12 07:00:00 16.1 0 Calma 2 Nordeste 0 -- -- 91
2018-09-12 06:00:00 16.5 0 Calma 3 Nordeste 0 -- -- 91
2018-09-12 05:00:00 16.4 0 Calma 3 Oeste 0 -- -- 89
2018-09-12 04:00:00 16.6 0 Calma 3 Nordeste 0 -- -- 88
2018-09-12 03:00:00 17 0 Calma 2 Nordeste 0 -- -- 87
2018-09-12 02:00:00 17.4 0 Calma 5 Nordeste 0 -- -- 84
2018-09-12 01:00:00 17.9 0 Calma 8 Este 0 -- -- 82
2018-09-12 00:00:00 18.4 0 Calma 4 Nordeste 0 -- -- 78
2018-09-11 23:00:00 19.3 0 Calma 3 Este 0 -- -- 74
2018-09-11 22:00:00 20.8 0 Calma 5 Nordeste 0 -- -- 68
2018-09-11 21:00:00 23 0 Calma 5 Nordeste 0 -- -- 59
2018-09-11 20:00:00 27.2 3 Sudoeste 16 Sudeste 0 -- -- 46
2018-09-11 19:00:00 28.5 5 Sudeste 14 Sudeste 0 -- -- 40
2018-09-11 18:00:00 28.1 4 Sudeste 12 Sur 0 -- -- 41
2018-09-11 17:00:00 27.3 4 Sur 14 Este 0 -- -- 42
2018-09-11 16:00:00 27.1 3 Este 18 Nordeste 0 -- -- 44
2018-09-11 15:00:00 28.2 7 Nordeste 21 Nordeste 0 -- -- 43
2018-09-11 14:00:00 26.8 7 Nordeste 19 Este 0 -- -- 48
2018-09-11 13:00:00 27.5 9 Nordeste 21 Nordeste 0 -- -- 45
2018-09-11 12:00:00 25.9 8 Este 18 Este 0 -- -- 52
2018-09-11 11:00:00 24.4 4 Sur 9 Sur 0 -- -- 58
2018-09-11 10:00:00 21.3 5 Noroeste 14 Noroeste 0 -- -- 70
2018-09-11 09:00:00 16.7 0 Calma 11 Norte 0 -- -- 89
2018-09-11 08:00:00 15.3 0 Calma 8 Nordeste 0 -- -- 90
2018-09-11 07:00:00 15.5 0 Calma 9 Norte 0 -- -- 89
2018-09-11 06:00:00 15.4 0 Calma 4 Este 0 -- -- 90
2018-09-11 05:00:00 15.7 0 Calma 4 Nordeste 0 -- -- 89
2018-09-11 04:00:00 16 0 Calma 5 Nordeste 0 -- -- 85
2018-09-11 03:00:00 16.8 3 Nordeste 6 Norte 0 -- -- 82
2018-09-11 02:00:00 17.7 0 Calma 6 Nordeste 0 -- -- 78
2018-09-11 01:00:00 20.1 0 Calma 13 Noroeste 0 -- -- 69
2018-09-11 00:00:00 21.4 9 Nordeste 26 Nordeste 0 -- -- 64
2018-09-10 23:00:00 21.6 11 Nordeste 25 Nordeste 0 -- -- 63
2018-09-10 22:00:00 21.4 7 Nordeste 18 Nordeste 0 -- -- 59
2018-09-10 21:00:00 22.3 7 Nordeste 20 Este 0 -- -- 54
2018-09-10 20:00:00 24.4 10 Nordeste 24 Nordeste 0 -- -- 48
2018-09-10 19:00:00 25.2 10 Nordeste 25 Nordeste 0 -- -- 45
2018-09-10 18:00:00 -- -- -- -- -- -- -- -- --
2018-09-10 17:00:00 -- -- -- -- -- -- -- -- --
2018-09-10 16:00:00 -- -- -- -- -- -- -- -- --
2018-09-10 15:00:00 -- -- -- -- -- -- -- -- --
2018-09-10 14:00:00 -- -- -- -- -- -- -- -- --
2018-09-10 13:00:00 -- -- -- -- -- -- -- -- --
2018-09-10 12:00:00 -- -- -- -- -- -- -- -- --
2018-09-10 11:00:00 -- -- -- -- -- -- -- -- --
2018-09-10 10:00:00 -- -- -- -- -- -- -- -- --
2018-09-10 09:00:00 -- -- -- -- -- -- -- -- --
2018-09-10 08:00:00 -- -- -- -- -- -- -- -- --
2018-09-10 07:00:00 -- -- -- -- -- -- -- -- --
2018-09-10 06:00:00 -- -- -- -- -- -- -- -- --
2018-09-10 05:00:00 -- -- -- -- -- -- -- -- --
2018-09-10 04:00:00 -- -- -- -- -- -- -- -- --
2018-09-10 03:00:00 -- -- -- -- -- -- -- -- --
2018-09-10 02:00:00 -- -- -- -- -- -- -- -- --
2018-09-10 01:00:00 -- -- -- -- -- -- -- -- --
2018-09-10 00:00:00 -- -- -- -- -- -- -- -- --
2018-09-09 23:00:00 -- -- -- -- -- -- -- -- --
2018-09-09 22:00:00 -- -- -- -- -- -- -- -- --
2018-09-09 21:00:00 -- -- -- -- -- -- -- -- --
2018-09-09 20:00:00 -- -- -- -- -- -- -- -- --
2018-09-09 19:00:00 -- -- -- -- -- -- -- -- --
2018-09-09 18:00:00 -- -- -- -- -- -- -- -- --
2018-09-09 17:00:00 26.5 6 Nordeste 21 Sudeste 0 -- -- 39
2018-09-09 16:00:00 28 9 Este 21 Este 0 -- -- 37
2018-09-09 15:00:00 27.7 5 Norte 18 Este 0 -- -- 39
2018-09-09 14:00:00 25.6 9 Sur 23 Este 0 -- -- 47
2018-09-09 13:00:00 25.2 7 Este 26 Sudeste 0 -- -- 44
2018-09-09 12:00:00 23.3 6 Este 18 Este 0 -- -- 55
2018-09-09 11:00:00 23.3 8 Nordeste 17 Nordeste 0 -- -- 56
2018-09-09 10:00:00 21.8 4 Nordeste 17 Este 0 -- -- 61
2018-09-09 09:00:00 17.4 4 Norte 12 Noroeste 0 -- -- 78
2018-09-09 08:00:00 15.7 3 Este 16 Norte 0 -- -- 79
2018-09-09 07:00:00 14.9 8 Norte 14 Norte 0 -- -- 84
2018-09-09 06:00:00 15 0 Calma 6 Noroeste 0 -- -- 81
2018-09-09 05:00:00 16.4 4 Noroeste 13 Norte 0 -- -- 76
2018-09-09 04:00:00 16.3 6 Norte 13 Norte 0 -- -- 78
2018-09-09 03:00:00 14.9 0 Calma 11 Nordeste 0 -- -- 85
2018-09-09 02:00:00 13.8 2 Nordeste 10 Nordeste 0 -- -- 88
2018-09-09 01:00:00 13.6 3 Norte 9 Norte 0 -- -- 90
2018-09-09 00:00:00 14.1 2 Norte 7 Noroeste 0 -- -- 86
2018-09-08 23:00:00 15.1 0 Calma 6 Este 0 -- -- 84
2018-09-08 22:00:00 16.5 3 Nordeste 13 Noroeste 0 -- -- 82
2018-09-08 21:00:00 18.2 6 Sudoeste 18 Sudoeste 0 -- -- 76
2018-09-08 20:00:00 19.1 5 Sudoeste 17 Oeste 0 -- -- 73
2018-09-08 19:00:00 20.7 10 Sur 19 Sudoeste 0 -- -- 65
2018-09-08 18:00:00 19.1 7 Sudeste 17 Sudeste 0 -- -- 75
2018-09-08 17:00:00 19.9 6 Sur 15 Sur 0 -- -- 67
2018-09-08 16:00:00 20.5 6 Sudoeste 13 Sudoeste 0 -- -- 64
2018-09-08 15:00:00 19.6 8 Sudoeste 32 Este 0 -- -- 69
2018-09-08 14:00:00 21.9 8 Sudeste 17 Sur 0 -- -- 55
2018-09-08 13:00:00 23.7 6 Sudoeste 17 Sur 0 -- -- 49
2018-09-08 12:00:00 23.5 8 Sudoeste 17 Oeste 0 -- -- 48
2018-09-08 11:00:00 22.3 4 Sur 12 Sudeste 0 -- -- 51
2018-09-08 10:00:00 21.2 4 Sur 8 Noroeste 0 -- -- 55
2018-09-08 09:00:00 15.7 0 Calma 11 Norte 0 -- -- 72
2018-09-08 08:00:00 16 5 Norte 12 Sudeste 0 -- -- 68
2018-09-08 07:00:00 15.7 0 Calma 5 Sudeste 0 -- -- 71
2018-09-08 06:00:00 15.2 0 Calma 5 Nordeste 0 -- -- 68
2018-09-08 05:00:00 15.4 0 Calma 4 Nordeste 0 -- -- 66
2018-09-08 04:00:00 16 3 Este 9 Nordeste 0 -- -- 64
2018-09-08 03:00:00 16.6 0 Calma 5 Nordeste 0 -- -- 61
2018-09-08 02:00:00 17.3 0 Calma 4 Este 0 -- -- 58
2018-09-08 01:00:00 17.4 0 Calma 3 Nordeste 0 -- -- 57
2018-09-08 00:00:00 18 0 Calma 2 Nordeste 0 -- -- 53
2018-09-07 23:00:00 19.3 0 Calma 3 Nordeste 0 -- -- 49
2018-09-07 22:00:00 20.9 0 Calma 9 Norte 0 -- -- 44
2018-09-07 21:00:00 23.7 4 Noroeste 8 Noroeste 0 -- -- 36
2018-09-07 20:00:00 26.6 7 Oeste 17 Oeste 0 -- -- 29
2018-09-07 19:00:00 28.2 10 Sur 28 Sudoeste 0 -- -- 26
2018-09-07 18:00:00 28.8 8 Sur 32 Sudoeste 0 -- -- 25
2018-09-07 17:00:00 29.1 13 Sur 29 Sudoeste 0 -- -- 23
2018-09-07 16:00:00 28.8 15 Sudoeste 32 Oeste 0 -- -- 23
2018-09-07 15:00:00 28.7 11 Sur 27 Sur 0 -- -- 22
2018-09-07 14:00:00 27.6 11 Sur 24 Sudeste 0 -- -- 26
2018-09-07 13:00:00 26.9 13 Sur 27 Sur 0 -- -- 38
2018-09-07 12:00:00 25.7 13 Sur 19 Sur 0 -- -- 43
2018-09-07 11:00:00 23.2 5 Sur 12 Sur 0 -- -- 52
2018-09-07 10:00:00 19.9 0 Calma 2 Sudeste 0 -- -- 60
2018-09-07 09:00:00 13.8 0 Calma 2 Este 0 -- -- 81
2018-09-07 08:00:00 12.6 0 Calma 2 Este 0 -- -- 81
2018-09-07 07:00:00 13.2 0 Calma 4 Nordeste 0 -- -- 77
2018-09-07 06:00:00 13.5 2 Norte 4 Nordeste 0 -- -- 77
2018-09-07 05:00:00 14.1 0 Calma 3 Nordeste 0 -- -- 75
2018-09-07 04:00:00 14.6 0 Calma 3 Nordeste 0 -- -- 73
2018-09-07 03:00:00 15.2 0 Calma 5 Este 0 -- -- 69
2018-09-07 02:00:00 16.2 0 Calma 4 Nordeste 0 -- -- 68
2018-09-07 01:00:00 17 0 Calma 5 Nordeste 0 -- -- 65
2018-09-07 00:00:00 17.8 0 Calma 7 Nordeste 0 -- -- 60
2018-09-06 23:00:00 19.2 0 Calma 7 Este 0 -- -- 54
2018-09-06 22:00:00 20.5 2 Noroeste 6 Nordeste 0 -- -- 50
2018-09-06 21:00:00 23.5 4 Norte 8 Noroeste 0 -- -- 36
2018-09-06 20:00:00 26.8 3 Oeste 13 Oeste 0 -- -- 32
2018-09-06 19:00:00 28.3 6 Noroeste 19 Sudoeste 0 -- -- 28
2018-09-06 18:00:00 28.6 10 Oeste 24 Oeste 0 -- -- 28
2018-09-06 17:00:00 28.6 9 Sur 25 Sur 0 -- -- 30
2018-09-06 16:00:00 28.2 13 Sudoeste 29 Sudoeste 0 -- -- 31
2018-09-06 15:00:00 26.8 7 Oeste 20 Sur 0 -- -- 34
2018-09-06 14:00:00 26.5 6 Sudoeste 21 Oeste 0 -- -- 37
2018-09-06 13:00:00 24.3 5 Sur 26 Sudoeste 0 -- -- 43
2018-09-06 12:00:00 24.1 10 Sudoeste 19 Sudoeste 0 -- -- 45
2018-09-06 11:00:00 22.2 4 Sur 9 Sudeste 0 -- -- 55
2018-09-06 10:00:00 18 5 Sudeste 8 Sudeste 0 -- -- 67
2018-09-06 09:00:00 13.8 0 Calma 4 Nordeste 0 -- -- 84
2018-09-06 08:00:00 12.3 2 Nordeste 4 Este 0 -- -- 86
2018-09-06 07:00:00 12.7 0 Calma 3 Nordeste 0 -- -- 84
2018-09-06 06:00:00 12.9 0 Calma 2 Nordeste 0 -- -- 84
2018-09-06 05:00:00 13.7 0 Calma 4 Este 0 -- -- 81
2018-09-06 04:00:00 13.9 0 Calma 3 Nordeste 0 -- -- 79
2018-09-06 03:00:00 14.3 0 Calma 4 Este 0 -- -- 77
2018-09-06 02:00:00 15.2 0 Calma 4 Nordeste 0 -- -- 74
2018-09-06 01:00:00 16.3 2 Nordeste 9 Nordeste 0 -- -- 69
2018-09-06 00:00:00 17.1 2 Norte 8 Nordeste 0 -- -- 67
2018-09-05 23:00:00 18.4 0 Calma 5 Nordeste 0 -- -- 63
2018-09-05 22:00:00 19.9 0 Calma 7 Este 0 -- -- 57
2018-09-05 21:00:00 23 5 Sudeste 18 Sur 0 -- -- 47
2018-09-05 20:00:00 24.3 10 Sur 21 Sur 0 -- -- 44
2018-09-05 19:00:00 25.8 11 Sudoeste 26 Sudoeste 0 -- -- 38
2018-09-05 18:00:00 26.4 12 Oeste 26 Oeste 0 -- -- 36
2018-09-05 17:00:00 27 9 Sur 23 Sudoeste 0 -- -- 38
2018-09-05 16:00:00 25.9 8 Sudoeste 26 Sudoeste 0 -- -- 42
2018-09-05 15:00:00 25 7 Oeste 28 Sudoeste 0 -- -- 45
2018-09-05 14:00:00 23.2 11 Sudoeste 21 Sudoeste 0 -- -- 52
2018-09-05 13:00:00 22.4 8 Sudoeste 19 Sudoeste 0 -- -- 53
2018-09-05 12:00:00 19.7 8 Sudeste 14 Sudeste 0 -- -- 64
2018-09-05 11:00:00 18.2 6 Sur 14 Sur 0 -- -- 72
2018-09-05 10:00:00 17.1 4 Sudeste 7 Este 0 -- -- 78
2018-09-05 09:00:00 14 0 Calma -- -- 0 -- -- 90
2018-09-05 08:00:00 12.3 0 Calma 2 Sudoeste 0 -- -- 89
2018-09-05 07:00:00 12.5 0 Calma 3 Sudoeste 0 -- -- 88
2018-09-05 06:00:00 12.8 0 Calma 5 Nordeste 0 -- -- 84
2018-09-05 05:00:00 13.4 0 Calma 4 Nordeste 0 -- -- 81
2018-09-05 04:00:00 13.9 0 Calma 4 Este 0 -- -- 79
2018-09-05 03:00:00 14.5 2 Nordeste 5 Nordeste 0 -- -- 76
2018-09-05 02:00:00 15.1 0 Calma 3 Este 0 -- -- 73
2018-09-05 01:00:00 16 0 Calma 6 Nordeste 0 -- -- 67
2018-09-05 00:00:00 16.9 0 Calma 6 Nordeste 0 -- -- 61
2018-09-04 23:00:00 19.3 0 Calma 18 Sur 0 -- -- 52
2018-09-04 22:00:00 22.7 10 Sur 26 Sur 0 -- -- 44
2018-09-04 21:00:00 23.5 6 Sudoeste 22 Sudoeste 0 -- -- 41
2018-09-04 20:00:00 25.7 10 Sur 22 Sur 0 -- -- 34
2018-09-04 19:00:00 27.3 10 Sur 22 Sur 0 -- -- 33
2018-09-04 18:00:00 27.8 12 Sur 24 Sur 0 -- -- 32
2018-09-04 17:00:00 28.9 9 Sur 23 Sur 0 -- -- 31
2018-09-04 16:00:00 28.5 10 Sur 24 Sudoeste 0 -- -- 29
2018-09-04 15:00:00 27.4 10 Sudeste 26 Sur 0 -- -- 31
2018-09-04 14:00:00 26.4 10 Sudeste 21 Sur 0 -- -- 41
2018-09-04 13:00:00 24.3 8 Sur 15 Sudeste 0 -- -- 52
2018-09-04 12:00:00 21.8 7 Sur 14 Sudeste 0 -- -- 62
2018-09-04 11:00:00 19.2 4 Sudoeste 11 Sudoeste 0 -- -- 72
2018-09-04 10:00:00 16 2 Sur 8 Nordeste 0 -- -- 84
2018-09-04 09:00:00 13.7 0 Calma 3 Nordeste 0 -- -- 89
2018-09-04 08:00:00 12.5 2 Nordeste 4 Nordeste 0 -- -- 85
2018-09-04 07:00:00 13 0 Calma 4 Sudoeste 0 -- -- 81
2018-09-04 06:00:00 13.4 2 Noroeste 4 Nordeste 0 -- -- 81
2018-09-04 05:00:00 13.9 0 Calma 5 Este 0 -- -- 81
2018-09-04 04:00:00 15 0 Calma 5 Nordeste 0 -- -- 77
2018-09-04 03:00:00 15.8 3 Este 5 Nordeste 0 -- -- 74
2018-09-04 02:00:00 17.8 0 Calma 8 Sur 0 -- -- 67
2018-09-04 01:00:00 19 2 Oeste 11 Sudeste 0 -- -- 63
2018-09-04 00:00:00 20 0 Calma 14 Sur 0 -- -- 54
2018-09-03 23:00:00 21.8 0 Calma 15 Oeste 0 -- -- 42
2018-09-03 22:00:00 24.6 0 Calma 24 Sudoeste 0 -- -- 33
2018-09-03 21:00:00 26.2 10 Sudoeste 30 Sudoeste 0 -- -- 29
2018-09-03 20:00:00 27.8 16 Sudoeste 32 Sur 0 -- -- 22
2018-09-03 19:00:00 29.9 10 Sudoeste 30 Sudeste 0 -- -- 27
2018-09-03 18:00:00 30.5 14 Sur 35 Sudoeste 0 -- -- 25
2018-09-03 17:00:00 30.9 13 Sudoeste 26 Oeste 0 -- -- 30
2018-09-03 16:00:00 30.3 13 Sur 30 Sudeste 0 -- -- 25
2018-09-03 15:00:00 31 13 Sur 23 Sur 0 -- -- 29
2018-09-03 14:00:00 28.1 8 Sur 22 Sudeste 0 -- -- 44
2018-09-03 13:00:00 26.1 9 Sur 23 Sur 0 -- -- 53
2018-09-03 12:00:00 24.6 6 Sur 14 Sudeste 0 -- -- 59
2018-09-03 11:00:00 22.9 6 Sudeste 18 Sudoeste 0 -- -- 65
2018-09-03 10:00:00 21.1 5 Sur 9 Sur 0 -- -- 73
2018-09-03 09:00:00 19.3 2 Sudeste 7 Nordeste 0 -- -- 75
2018-09-03 08:00:00 18.4 4 Sudeste 10 Sudeste 0 -- -- 74
2018-09-03 07:00:00 19 0 Calma 9 Nordeste 0 -- -- 70
2018-09-03 06:00:00 19.5 3 Este 8 Sudoeste 0 -- -- 69
2018-09-03 05:00:00 20.2 3 Nordeste 7 Este 0 -- -- 65
2018-09-03 04:00:00 21.1 3 Nordeste 7 Nordeste 0 -- -- 60
2018-09-03 03:00:00 21.7 3 Nordeste 7 Nordeste 0 -- -- 56
2018-09-03 02:00:00 22.3 2 Noroeste 9 Este 0 -- -- 53
2018-09-03 01:00:00 22.8 2 Nordeste 6 Nordeste 0 -- -- 50
2018-09-03 00:00:00 24.1 3 Norte 7 Nordeste 0 -- -- 41
2018-09-02 23:00:00 24.1 0 Calma 5 Nordeste 0 -- -- 41
2018-09-02 22:00:00 25.5 2 Nordeste 5 Este 0 -- -- 39
2018-09-02 21:00:00 28.6 2 Norte 13 Oeste 0 -- -- 32
2018-09-02 20:00:00 33.3 6 Sudoeste 19 Sudoeste 0 -- -- 23
2018-09-02 19:00:00 35.4 10 Sudoeste 19 Sur 0 -- -- 21
2018-09-02 18:00:00 36.2 8 Sur 27 Sudeste 0 -- -- 20
2018-09-02 17:00:00 36.5 10 Sudoeste 22 Sur 0 -- -- 20
2018-09-02 16:00:00 35.8 5 Nordeste 23 Sur 0 -- -- 20
2018-09-02 15:00:00 35.4 9 Sudoeste 23 Sur 0 -- -- 21
2018-09-02 14:00:00 34.3 6 Sur 19 Sur 0 -- -- 25
2018-09-02 13:00:00 32.7 7 Sudeste 19 Sudoeste 0 -- -- 26
2018-09-02 12:00:00 31.1 8 Sudeste 21 Sudeste 0 -- -- 29
2018-09-02 11:00:00 29.8 5 Sudeste 9 Sur 0 -- -- 32
2018-09-02 10:00:00 24.6 2 Este 5 Nordeste 0 -- -- 48
2018-09-02 09:00:00 19.3 2 Nordeste 5 Sudoeste 0 -- -- 61
2018-09-02 08:00:00 17.6 0 Calma 5 Nordeste 0 -- -- 60
2018-09-02 07:00:00 17.6 0 Calma 2 Norte 0 -- -- 60
2018-09-02 06:00:00 17.8 0 Calma 2 Nordeste 0 -- -- 58
2018-09-02 05:00:00 18.7 0 Calma 4 Nordeste 0 -- -- 57
2018-09-02 04:00:00 19 0 Calma 2 Este 0 -- -- 54
2018-09-02 03:00:00 19.5 0 Calma 3 Nordeste 0 -- -- 56
2018-09-02 02:00:00 19.9 0 Calma 5 Nordeste 0 -- -- 53
2018-09-02 01:00:00 21.1 0 Calma 4 Este 0 -- -- 50
2018-09-02 00:00:00 22.7 2 Norte 6 Nordeste 0 -- -- 46
2018-09-01 23:00:00 24.3 2 Norte 6 Este 0 -- -- 41
2018-09-01 22:00:00 27.5 3 Nordeste 14 Este 0 -- -- 37
2018-09-01 21:00:00 30 3 Oeste 22 Sudoeste 0 -- -- 32
2018-09-01 20:00:00 33.5 10 Sudoeste 19 Sudoeste 0 -- -- 23
2018-09-01 19:00:00 35.3 8 Sur 21 Sur 0 -- -- 20
2018-09-01 18:00:00 35.7 12 Sur 24 Sudeste 0 -- -- 21
2018-09-01 17:00:00 34.7 5 Sudeste 21 Sur 0 -- -- 23
2018-09-01 16:00:00 35.2 6 Este 27 Sudeste 0 -- -- 22
2018-09-01 15:00:00 36.1 8 Sudoeste 22 Sur 0 -- -- 22
2018-09-01 14:00:00 34.7 9 Sur 19 Sur 0 -- -- 25
2018-09-01 13:00:00 33.2 6 Sur 18 Sur 0 -- -- 29
2018-09-01 12:00:00 31.3 6 Sudeste 12 Sudeste 0 -- -- 34
2018-09-01 11:00:00 28.6 7 Sur 12 Sur 0 -- -- 38
2018-09-01 10:00:00 25.1 0 Calma 2 Sudeste 0 -- -- 45
2018-09-01 09:00:00 19.1 0 Calma 4 Nordeste 0 -- -- 65
2018-09-01 08:00:00 17.4 0 Calma 3 Este 0 -- -- 61
2018-09-01 07:00:00 17.9 0 Calma 4 Nordeste 0 -- -- 59
2018-09-01 06:00:00 18 0 Calma 7 Nordeste 0 -- -- 58
2018-09-01 05:00:00 18.6 0 Calma 6 Nordeste 0 -- -- 58
2018-09-01 04:00:00 19.5 3 Norte 6 Este 0 -- -- 54
2018-09-01 03:00:00 20.1 0 Calma 5 Norte 0 -- -- 54
2018-09-01 02:00:00 21.4 3 Oeste 8 Nordeste 0 -- -- 49
2018-09-01 01:00:00 22 2 Noroeste 5 Sudoeste 0 -- -- 50
2018-09-01 00:00:00 23.4 0 Calma 3 Nordeste 0 -- -- 47
2018-08-31 23:00:00 24.7 0 Calma 5 Nordeste 0 -- -- 44
2018-08-31 22:00:00 27.2 0 Calma 10 Nordeste 0 -- -- 40
2018-08-31 21:00:00 29.9 4 Nordeste 14 Sudoeste 0 -- -- 35
2018-08-31 20:00:00 32.7 9 Sudoeste 17 Sudoeste 0 -- -- 28
2018-08-31 19:00:00 34.5 8 Sur 15 Oeste 0 -- -- 27
2018-08-31 18:00:00 34.3 10 Oeste 18 Sudoeste 0 -- -- 26
2018-08-31 17:00:00 34.2 14 Sudoeste 24 Sudoeste 0 -- -- 28
2018-08-31 16:00:00 35.3 11 Sur 22 Sudoeste 0 -- -- 24
2018-08-31 15:00:00 33.4 5 Sudoeste 14 Este 0 -- -- 27
2018-08-31 14:00:00 33.2 5 Este 19 Sur 0 -- -- 29
2018-08-31 13:00:00 32.4 7 Sudoeste 20 Oeste 0 -- -- 30
2018-08-31 12:00:00 31.1 5 Sur 12 Sudeste 0 -- -- 33
2018-08-31 11:00:00 28.9 3 Sudoeste 10 Sudoeste 0 -- -- 40
2018-08-31 10:00:00 25 0 Calma 3 Sur 0 -- -- 54
2018-08-31 09:00:00 18.6 0 Calma 4 Nordeste 0 -- -- 71
2018-08-31 08:00:00 17.1 3 Nordeste 5 Nordeste 0 -- -- 69
2018-08-31 07:00:00 17 0 Calma 4 Nordeste 0 -- -- 65
2018-08-31 06:00:00 17.1 0 Calma 4 Este 0 -- -- 63
2018-08-31 05:00:00 17.3 0 Calma 6 Nordeste 0 -- -- 60
2018-08-31 04:00:00 18.2 0 Calma 9 Nordeste 0 -- -- 56
2018-08-31 03:00:00 18.4 0 Calma 4 Sudoeste 0 -- -- 57
2018-08-31 02:00:00 18.9 4 Nordeste 8 Sudoeste 0 -- -- 52
2018-08-31 01:00:00 19.9 0 Calma 6 Nordeste 0 -- -- 54
2018-08-31 00:00:00 20.7 0 Calma 4 Oeste 0 -- -- 50
2018-08-30 23:00:00 21.5 2 Este 4 Este 0 -- -- 47
2018-08-30 22:00:00 23.4 2 Nordeste 6 Nordeste 0 -- -- 42
2018-08-30 21:00:00 26.7 2 Norte 6 Sudoeste 0 -- -- 34
2018-08-30 20:00:00 31.6 5 Sudoeste 16 Sur 0 -- -- 26
2018-08-30 19:00:00 32.8 10 Sudoeste 19 Oeste 0 -- -- 25
2018-08-30 18:00:00 32.7 5 Sudoeste 21 Sur 0 -- -- 25
2018-08-30 17:00:00 33 9 Sudeste 23 Sur 0 -- -- 25
2018-08-30 16:00:00 32.8 8 Sur 23 Sur 0 -- -- 26
2018-08-30 15:00:00 32.3 10 Sudoeste 21 Sudoeste 0 -- -- 29
2018-08-30 14:00:00 31.7 10 Sur 22 Sudoeste 0 -- -- 30
2018-08-30 13:00:00 30.2 10 Sur 21 Sur 0 -- -- 32
2018-08-30 12:00:00 28.5 11 Sur 19 Sudoeste 0 -- -- 37
2018-08-30 11:00:00 26.7 5 Sudeste 11 Sudeste 0 -- -- 37
2018-08-30 10:00:00 23.4 3 Sur 6 Oeste 0 -- -- 42
2018-08-30 09:00:00 18 0 Calma 4 Este 0 -- -- 58
2018-08-30 08:00:00 16.1 0 Calma 6 Nordeste 0 -- -- 59
2018-08-30 07:00:00 16.4 0 Calma 5 Este 0 -- -- 57
2018-08-30 06:00:00 16.6 0 Calma 8 Este 0 -- -- 53
2018-08-30 05:00:00 17.6 2 Nordeste 5 Este 0 -- -- 49
2018-08-30 04:00:00 19.5 0 Calma 9 Norte 0 -- -- 43
2018-08-30 03:00:00 21.7 5 Nordeste 11 Nordeste 0 -- -- 35
2018-08-30 02:00:00 22.1 4 Norte 13 Nordeste 0 -- -- 33
2018-08-30 01:00:00 22.9 6 Norte 11 Nordeste 0 -- -- 32
2018-08-30 00:00:00 22.5 4 Norte 10 Nordeste 0 -- -- 34
2018-08-29 23:00:00 22.8 4 Nordeste 9 Nordeste 0 -- -- 35
2018-08-29 22:00:00 24.7 0 Calma 9 Nordeste 0 -- -- 33
2018-08-29 21:00:00 27.4 3 Este 12 Noroeste 0 -- -- 32
2018-08-29 20:00:00 30.7 8 Oeste 18 Noroeste 0 -- -- 27
2018-08-29 19:00:00 32.5 6 Oeste 17 Noroeste 0 -- -- 26
2018-08-29 18:00:00 32.7 10 Oeste 22 Sudoeste 0 -- -- 25
2018-08-29 17:00:00 32.1 5 Sur 18 Oeste 0 -- -- 27
2018-08-29 16:00:00 31.8 7 Sur 22 Sudoeste 0 -- -- 26
2018-08-29 15:00:00 31.8 10 Sur 24 Oeste 0 -- -- 26
2018-08-29 14:00:00 30.9 10 Sudoeste 22 Sudoeste 0 -- -- 30
2018-08-29 13:00:00 29.8 7 Este 24 Sur 0 -- -- 32
2018-08-29 12:00:00 28.6 6 Sudeste 12 Sur 0 -- -- 34
2018-08-29 11:00:00 26.7 7 Sudeste 10 Sudeste 0 -- -- 34
2018-08-29 10:00:00 23.4 2 Sur 5 Este 0 -- -- 41
2018-08-29 09:00:00 17.7 0 Calma 3 Este 0 -- -- 57
2018-08-29 08:00:00 16.4 0 Calma 4 Nordeste 0 -- -- 55
2018-08-29 07:00:00 17.2 0 Calma 4 Nordeste 0 -- -- 53
2018-08-29 06:00:00 19.1 0 Calma 4 Nordeste 0 -- -- 50
2018-08-29 05:00:00 20.3 0 Calma 7 Norte 0 -- -- 47
2018-08-29 04:00:00 20.3 3 Nordeste 8 Noroeste 0 -- -- 48
2018-08-29 03:00:00 20 0 Calma 3 Noroeste 0 -- -- 46
2018-08-29 02:00:00 22.2 0 Calma 7 Nordeste 0 -- -- 43
2018-08-29 01:00:00 23.6 3 Este 8 Este 0 -- -- 47
2018-08-29 00:00:00 25 3 Nordeste 29 Sudoeste 0 -- -- 42
2018-08-28 23:00:00 27.5 8 Oeste 28 Sudoeste 0 -- -- 32
2018-08-28 22:00:00 26.5 3 Nordeste 12 Este 0 -- -- 37
2018-08-28 21:00:00 29.7 3 Oeste 25 Sur 0 -- -- 32
2018-08-28 20:00:00 31.5 9 Sur 29 Sur 0 -- -- 29
2018-08-28 19:00:00 32.8 15 Sudoeste 36 Oeste 0 -- -- 28
2018-08-28 18:00:00 33.4 16 Sudoeste 35 Sudoeste 0 -- -- 27
2018-08-28 17:00:00 33.8 15 Sudoeste 33 Sudeste 0 -- -- 27
2018-08-28 16:00:00 33.9 11 Sur 29 Sudoeste 0 -- -- 26
2018-08-28 15:00:00 33.2 13 Sudoeste 26 Sudoeste 0 -- -- 26
2018-08-28 14:00:00 32.6 12 Sur 31 Sudeste 0 -- -- 28
2018-08-28 13:00:00 31.5 12 Sur 26 Sur 0 -- -- 30
2018-08-28 12:00:00 31.2 12 Sur 23 Sur 0 -- -- 32
2018-08-28 11:00:00 28.7 7 Sudoeste 23 Sudoeste 0 -- -- 38
2018-08-28 10:00:00 26.6 5 Sudeste 13 Sudoeste 0 -- -- 43
2018-08-28 09:00:00 20.6 3 Nordeste 12 Sudeste 0 -- -- 60
2018-08-28 08:00:00 19.3 3 Noroeste 10 Nordeste 0 -- -- 59
2018-08-28 07:00:00 20.6 4 Nordeste 12 Este 0 -- -- 53
2018-08-28 06:00:00 22.6 4 Sur 21 Sudeste 0 -- -- 48
2018-08-28 05:00:00 23 2 Oeste 13 Sudeste 0 -- -- 46
2018-08-28 04:00:00 22 3 Nordeste 9 Nordeste 0 -- -- 47
2018-08-28 03:00:00 21.5 0 Calma 9 Este 0 -- -- 50
2018-08-28 02:00:00 22.1 2 Nordeste 6 Nordeste 0 -- -- 43
2018-08-28 01:00:00 23.9 3 Noroeste 12 Este 0 -- -- 40
2018-08-28 00:00:00 23.7 3 Norte 12 Nordeste 0 -- -- 32
2018-08-27 23:00:00 26.1 3 Norte 9 Nordeste 0 -- -- 27
2018-08-27 22:00:00 27.6 2 Norte 9 Este 0 -- -- 27
2018-08-27 21:00:00 31.5 6 Nordeste 30 Este 0 -- -- 21
2018-08-27 20:00:00 32.8 5 Oeste 31 Sudoeste 0 -- -- 20
2018-08-27 19:00:00 36.3 9 Sudoeste 15 Sudoeste 0 -- -- 18
2018-08-27 18:00:00 35.1 7 Sudoeste 15 Sudoeste 0 -- -- 17
2018-08-27 17:00:00 35.8 4 Sudoeste 21 Oeste 0 -- -- 17
2018-08-27 16:00:00 37 8 Sudoeste 30 Sudoeste 0 -- -- 16
2018-08-27 15:00:00 36.8 12 Oeste 31 Oeste 0 -- -- 16
2018-08-27 14:00:00 35.8 4 Oeste 25 Sur 0 -- -- 20
2018-08-27 13:00:00 34.5 10 Sudoeste 22 Sur 0 -- -- 21
2018-08-27 12:00:00 33.3 8 Sudeste 17 Sudeste 0 -- -- 24
2018-08-27 11:00:00 31.3 6 Sudoeste 13 Sudoeste 0 -- -- 27
2018-08-27 10:00:00 26 2 Este 4 Este 0 -- -- 38
2018-08-27 09:00:00 19.5 0 Calma 5 Nordeste 0 -- -- 49
2018-08-27 08:00:00 17.1 0 Calma 6 Este 0 -- -- 52
2018-08-27 07:00:00 17.1 0 Calma 4 Nordeste 0 -- -- 51
2018-08-27 06:00:00 17.3 0 Calma 4 Nordeste 0 -- -- 48
2018-08-27 05:00:00 17.8 0 Calma 5 Nordeste 0 -- -- 43
2018-08-27 04:00:00 19.3 0 Calma 8 Nordeste 0 -- -- 42
2018-08-27 03:00:00 18.9 0 Calma 4 Este 0 -- -- 43
2018-08-27 02:00:00 19.3 0 Calma 5 Nordeste 0 -- -- 43
2018-08-27 01:00:00 20.1 0 Calma 6 Nordeste 0 -- -- 46
2018-08-27 00:00:00 21.6 2 Norte 13 Nordeste 0 -- -- 39
2018-08-26 23:00:00 22.6 2 Norte 9 Sudoeste 0 -- -- 38
2018-08-26 22:00:00 25.1 0 Calma 8 Sur 0 -- -- 33
2018-08-26 21:00:00 28.5 3 Sudeste 13 Sur 0 -- -- 29
2018-08-26 20:00:00 34.1 6 Sudoeste 22 Sur 0 -- -- 19
2018-08-26 19:00:00 35.2 12 Sudoeste 26 Sudoeste 0 -- -- 18
2018-08-26 18:00:00 35.4 10 Sudoeste 28 Oeste 0 -- -- 18
2018-08-26 17:00:00 35.7 5 Sudoeste 28 Oeste 0 -- -- 17
2018-08-26 16:00:00 35.6 7 Sudoeste 25 Oeste 0 -- -- 17
2018-08-26 15:00:00 35.2 6 Noroeste 21 Oeste 0 -- -- 17
2018-08-26 14:00:00 33.9 6 Sur 23 Oeste 0 -- -- 19
2018-08-26 13:00:00 33.3 13 Sudoeste 27 Oeste 0 -- -- 19
2018-08-26 12:00:00 32.1 5 Sudeste 13 Sur 0 -- -- 20
2018-08-26 11:00:00 30.5 4 Sur 7 Sudeste 0 -- -- 22
2018-08-26 10:00:00 25.4 0 Calma 3 Este 0 -- -- 40
2018-08-26 09:00:00 19 0 Calma 4 Nordeste 0 -- -- 50
2018-08-26 08:00:00 16.2 0 Calma 5 Norte 0 -- -- 45
2018-08-26 07:00:00 16.8 0 Calma 5 Nordeste 0 -- -- 43
2018-08-26 06:00:00 18.4 3 Noroeste 8 Nordeste 0 -- -- 42
2018-08-26 05:00:00 19.3 3 Norte 10 Noroeste 0 -- -- 37
2018-08-26 04:00:00 19.3 0 Calma 7 Norte 0 -- -- 37
2018-08-26 03:00:00 20 3 Norte 6 Norte 0 -- -- 36
2018-08-26 02:00:00 19.7 0 Calma 6 Noroeste 0 -- -- 42
2018-08-26 01:00:00 20.4 0 Calma 4 Nordeste 0 -- -- 35
2018-08-26 00:00:00 21 0 Calma 3 Nordeste 0 -- -- 37
2018-08-25 23:00:00 23 0 Calma 6 Noroeste 0 -- -- 34
2018-08-25 22:00:00 25.9 0 Calma 9 Norte 0 -- -- 27
2018-08-25 21:00:00 28.6 5 Norte 12 Norte 0 -- -- 24
2018-08-25 20:00:00 32.2 2 Sudoeste 21 Oeste 0 -- -- 26
2018-08-25 19:00:00 34.1 10 Sudoeste 22 Sudoeste 0 -- -- 21
2018-08-25 18:00:00 33.6 8 Sudoeste 20 Sudoeste 0 -- -- 23
2018-08-25 17:00:00 33.6 5 Noroeste 27 Oeste 0 -- -- 23
2018-08-25 16:00:00 35.3 12 Sudoeste 32 Sudoeste 0 -- -- 20
2018-08-25 15:00:00 33.8 6 Oeste 24 Sudoeste 0 -- -- 21
2018-08-25 14:00:00 33.5 10 Sudoeste 21 Sudoeste 0 -- -- 23
2018-08-25 13:00:00 33.7 8 Sur 15 Sudeste 0 -- -- 21
2018-08-25 12:00:00 31.5 6 Sudeste 11 Sudeste 0 -- -- 24
2018-08-25 11:00:00 29.3 3 Sudeste 7 Sudeste 0 -- -- 26
2018-08-25 10:00:00 25 0 Calma 2 Nordeste 0 -- -- 40
2018-08-25 09:00:00 19.2 0 Calma 2 Este 0 -- -- 51
2018-08-25 08:00:00 17.6 0 Calma 4 Nordeste 0 -- -- 47
2018-08-25 07:00:00 17.8 0 Calma 4 Este 0 -- -- 47
2018-08-25 06:00:00 19.3 2 Este 11 Norte 0 -- -- 45
2018-08-25 05:00:00 22.3 3 Noroeste 10 Norte 0 -- -- 38
2018-08-25 04:00:00 23.3 5 Norte 13 Norte 0 -- -- 32
2018-08-25 03:00:00 22.3 4 Nordeste 11 Nordeste 0 -- -- 37
2018-08-25 02:00:00 19.9 0 Calma 3 Oeste 0 -- -- 47
2018-08-25 01:00:00 20.1 0 Calma 2 Oeste 0 -- -- 43
2018-08-25 00:00:00 21.1 0 Calma 2 Nordeste 0 -- -- 40
2018-08-24 23:00:00 24.4 0 Calma 7 Nordeste 0 -- -- 35
2018-08-24 22:00:00 26.7 4 Nordeste 10 Nordeste 0 -- -- 29
2018-08-24 21:00:00 28.6 6 Nordeste 10 Noroeste 0 -- -- 27
2018-08-24 20:00:00 33.5 4 Oeste 17 Noroeste 0 -- -- 23
2018-08-24 19:00:00 34.7 5 Norte 18 Oeste 0 -- -- 22
2018-08-24 18:00:00 35.1 9 Sudoeste 21 Noroeste 0 -- -- 22
2018-08-24 17:00:00 34.8 9 Nordeste 18 Nordeste 0 -- -- 23
2018-08-24 16:00:00 33.5 4 Nordeste 14 Norte 0 -- -- 25
2018-08-24 15:00:00 33.8 5 Sudoeste 21 Nordeste 0 -- -- 25
2018-08-24 14:00:00 33.8 8 Sur 20 Sudoeste 0 -- -- 24
2018-08-24 13:00:00 32.7 6 Sudeste 14 Sudeste 0 -- -- 29
2018-08-24 12:00:00 30.5 7 Sudeste 13 Sur 0 -- -- 34
2018-08-24 11:00:00 28.5 6 Sudeste 11 Sudeste 0 -- -- 39
2018-08-24 10:00:00 25.2 0 Calma 3 Sudeste 0 -- -- 47
2018-08-24 09:00:00 18.7 0 Calma 3 Nordeste 0 -- -- 70
2018-08-24 08:00:00 16.2 0 Calma 4 Nordeste 0 -- -- 68
2018-08-24 07:00:00 16.4 0 Calma 2 Nordeste 0 -- -- 68
2018-08-24 06:00:00 16.8 0 Calma 3 Nordeste 0 -- -- 65
2018-08-24 05:00:00 17 0 Calma 5 Sudoeste 0 -- -- 64
2018-08-24 04:00:00 17.7 0 Calma 4 Este 0 -- -- 65
2018-08-24 03:00:00 18.4 2 Nordeste 5 Noroeste 0 -- -- 61
2018-08-24 02:00:00 20.1 2 Norte 8 Sur 0 -- -- 53
2018-08-24 01:00:00 20.5 0 Calma 5 Nordeste 0 -- -- 50
2018-08-24 00:00:00 19.6 2 Nordeste 8 Nordeste 0 -- -- 56